sensor_id;sensor_type;location;lat;lon;timestamp;P1;durP1;ratioP1;P2;durP2;ratioP2
8159;SDS011;27404;52.398;9.646;2024-01-30T00:00:14;12.77;;;8.30;;
8159;SDS011;27404;52.398;9.646;2024-01-30T00:02:39;13.70;;;8.60;;
8159;SDS011;27404;52.398;9.646;2024-01-30T00:05:05;12.53;;;9.13;;
8159;SDS011;27404;52.398;9.646;2024-01-30T00:07:31;15.17;;;9.10;;
8159;SDS011;27404;52.398;9.646;2024-01-30T00:09:57;14.63;;;8.63;;
8159;SDS011;27404;52.398;9.646;2024-01-30T00:12:22;12.57;;;8.33;;
8159;SDS011;27404;52.398;9.646;2024-01-30T00:14:47;14.97;;;9.10;;
8159;SDS011;27404;52.398;9.646;2024-01-30T00:17:13;15.40;;;9.03;;
8159;SDS011;27404;52.398;9.646;2024-01-30T00:19:39;14.63;;;9.17;;
8159;SDS011;27404;52.398;9.646;2024-01-30T00:22:05;14.47;;;9.23;;
8159;SDS011;27404;52.398;9.646;2024-01-30T00:24:30;17.67;;;9.63;;
8159;SDS011;27404;52.398;9.646;2024-01-30T00:26:56;13.03;;;9.30;;
8159;SDS011;27404;52.398;9.646;2024-01-30T00:29:21;13.47;;;8.60;;
8159;SDS011;27404;52.398;9.646;2024-01-30T00:31:47;14.60;;;9.43;;
8159;SDS011;27404;52.398;9.646;2024-01-30T00:34:13;13.93;;;8.77;;
8159;SDS011;27404;52.398;9.646;2024-01-30T00:36:38;16.03;;;9.53;;
8159;SDS011;27404;52.398;9.646;2024-01-30T00:39:04;18.13;;;9.63;;
8159;SDS011;27404;52.398;9.646;2024-01-30T00:41:32;16.93;;;9.53;;
8159;SDS011;27404;52.398;9.646;2024-01-30T00:43:57;13.37;;;9.17;;
8159;SDS011;27404;52.398;9.646;2024-01-30T00:46:23;16.53;;;9.60;;
8159;SDS011;27404;52.398;9.646;2024-01-30T00:48:48;13.23;;;8.90;;
8159;SDS011;27404;52.398;9.646;2024-01-30T00:51:14;15.80;;;10.00;;
8159;SDS011;27404;52.398;9.646;2024-01-30T00:53:40;20.63;;;10.73;;
8159;SDS011;27404;52.398;9.646;2024-01-30T00:56:06;17.73;;;9.27;;
8159;SDS011;27404;52.398;9.646;2024-01-30T00:58:34;19.30;;;10.47;;
8159;SDS011;27404;52.398;9.646;2024-01-30T01:00:59;14.80;;;9.70;;
8159;SDS011;27404;52.398;9.646;2024-01-30T01:03:25;13.37;;;9.07;;
8159;SDS011;27404;52.398;9.646;2024-01-30T01:05:50;16.97;;;9.60;;
8159;SDS011;27404;52.398;9.646;2024-01-30T01:08:16;14.20;;;8.67;;
8159;SDS011;27404;52.398;9.646;2024-01-30T01:10:41;14.80;;;9.33;;
8159;SDS011;27404;52.398;9.646;2024-01-30T01:13:07;15.53;;;9.30;;
8159;SDS011;27404;52.398;9.646;2024-01-30T01:15:32;15.07;;;9.17;;
8159;SDS011;27404;52.398;9.646;2024-01-30T01:17:57;13.67;;;8.60;;
8159;SDS011;27404;52.398;9.646;2024-01-30T01:20:23;14.33;;;9.63;;
8159;SDS011;27404;52.398;9.646;2024-01-30T01:22:48;14.07;;;9.03;;
8159;SDS011;27404;52.398;9.646;2024-01-30T01:25:14;17.30;;;9.43;;
8159;SDS011;27404;52.398;9.646;2024-01-30T01:27:40;15.90;;;9.93;;
8159;SDS011;27404;52.398;9.646;2024-01-30T01:30:09;17.70;;;10.37;;
8159;SDS011;27404;52.398;9.646;2024-01-30T01:32:36;15.90;;;10.07;;
8159;SDS011;27404;52.398;9.646;2024-01-30T01:35:03;17.43;;;10.27;;
8159;SDS011;27404;52.398;9.646;2024-01-30T01:37:30;14.07;;;9.67;;
8159;SDS011;27404;52.398;9.646;2024-01-30T01:39:56;16.60;;;9.67;;
8159;SDS011;27404;52.398;9.646;2024-01-30T01:42:22;15.30;;;10.40;;
8159;SDS011;27404;52.398;9.646;2024-01-30T01:44:47;14.20;;;9.97;;
8159;SDS011;27404;52.398;9.646;2024-01-30T01:47:13;16.33;;;10.53;;
8159;SDS011;27404;52.398;9.646;2024-01-30T01:49:39;17.57;;;10.50;;
8159;SDS011;27404;52.398;9.646;2024-01-30T01:52:05;17.43;;;10.23;;
8159;SDS011;27404;52.398;9.646;2024-01-30T01:54:31;18.30;;;11.03;;
8159;SDS011;27404;52.398;9.646;2024-01-30T01:56:57;18.87;;;10.33;;
8159;SDS011;27404;52.398;9.646;2024-01-30T01:59:23;14.63;;;10.53;;
8159;SDS011;27404;52.398;9.646;2024-01-30T02:01:49;15.87;;;10.37;;
8159;SDS011;27404;52.398;9.646;2024-01-30T02:04:18;16.60;;;10.47;;
8159;SDS011;27404;52.398;9.646;2024-01-30T02:06:43;22.17;;;11.47;;
8159;SDS011;27404;52.398;9.646;2024-01-30T02:09:09;18.53;;;11.43;;
8159;SDS011;27404;52.398;9.646;2024-01-30T02:11:35;17.40;;;10.67;;
8159;SDS011;27404;52.398;9.646;2024-01-30T02:14:04;16.63;;;10.90;;
8159;SDS011;27404;52.398;9.646;2024-01-30T02:16:30;16.77;;;10.50;;
8159;SDS011;27404;52.398;9.646;2024-01-30T02:18:56;15.50;;;9.87;;
8159;SDS011;27404;52.398;9.646;2024-01-30T02:21:21;19.10;;;11.07;;
8159;SDS011;27404;52.398;9.646;2024-01-30T02:23:47;15.47;;;10.77;;
8159;SDS011;27404;52.398;9.646;2024-01-30T02:26:14;19.10;;;11.70;;
8159;SDS011;27404;52.398;9.646;2024-01-30T02:28:40;18.73;;;11.50;;
8159;SDS011;27404;52.398;9.646;2024-01-30T02:31:05;17.53;;;11.03;;
8159;SDS011;27404;52.398;9.646;2024-01-30T02:33:31;18.47;;;11.43;;
8159;SDS011;27404;52.398;9.646;2024-01-30T02:35:57;18.30;;;11.67;;
8159;SDS011;27404;52.398;9.646;2024-01-30T02:38:23;16.93;;;11.37;;
8159;SDS011;27404;52.398;9.646;2024-01-30T02:40:49;18.23;;;12.07;;
8159;SDS011;27404;52.398;9.646;2024-01-30T02:43:15;18.90;;;12.00;;
8159;SDS011;27404;52.398;9.646;2024-01-30T02:45:41;19.50;;;11.67;;
8159;SDS011;27404;52.398;9.646;2024-01-30T02:48:07;21.17;;;11.50;;
8159;SDS011;27404;52.398;9.646;2024-01-30T02:50:32;19.97;;;12.17;;
8159;SDS011;27404;52.398;9.646;2024-01-30T02:52:58;18.57;;;11.87;;
8159;SDS011;27404;52.398;9.646;2024-01-30T02:55:24;18.20;;;11.63;;
8159;SDS011;27404;52.398;9.646;2024-01-30T02:57:49;18.53;;;11.57;;
8159;SDS011;27404;52.398;9.646;2024-01-30T03:00:15;17.17;;;12.13;;
8159;SDS011;27404;52.398;9.646;2024-01-30T03:02:40;19.47;;;12.30;;
8159;SDS011;27404;52.398;9.646;2024-01-30T03:05:06;18.67;;;11.73;;
8159;SDS011;27404;52.398;9.646;2024-01-30T03:07:33;17.50;;;11.40;;
8159;SDS011;27404;52.398;9.646;2024-01-30T03:09:58;18.53;;;11.33;;
8159;SDS011;27404;52.398;9.646;2024-01-30T03:12:24;16.17;;;10.83;;
8159;SDS011;27404;52.398;9.646;2024-01-30T03:14:49;21.50;;;11.83;;
8159;SDS011;27404;52.398;9.646;2024-01-30T03:17:15;17.77;;;11.60;;
8159;SDS011;27404;52.398;9.646;2024-01-30T03:19:40;17.87;;;11.10;;
8159;SDS011;27404;52.398;9.646;2024-01-30T03:22:06;16.27;;;10.50;;
8159;SDS011;27404;52.398;9.646;2024-01-30T03:24:32;17.80;;;11.00;;
8159;SDS011;27404;52.398;9.646;2024-01-30T03:26:57;18.27;;;11.07;;
8159;SDS011;27404;52.398;9.646;2024-01-30T03:29:22;18.70;;;11.17;;
8159;SDS011;27404;52.398;9.646;2024-01-30T03:31:48;19.17;;;11.27;;
8159;SDS011;27404;52.398;9.646;2024-01-30T03:34:13;19.57;;;11.40;;
8159;SDS011;27404;52.398;9.646;2024-01-30T03:36:39;17.23;;;11.00;;
8159;SDS011;27404;52.398;9.646;2024-01-30T03:39:04;16.40;;;10.60;;
8159;SDS011;27404;52.398;9.646;2024-01-30T03:41:31;18.17;;;11.07;;
8159;SDS011;27404;52.398;9.646;2024-01-30T03:43:57;17.07;;;10.93;;
8159;SDS011;27404;52.398;9.646;2024-01-30T03:46:22;17.43;;;11.17;;
8159;SDS011;27404;52.398;9.646;2024-01-30T03:48:48;17.87;;;10.90;;
8159;SDS011;27404;52.398;9.646;2024-01-30T03:51:13;17.90;;;10.53;;
8159;SDS011;27404;52.398;9.646;2024-01-30T03:53:41;17.17;;;11.20;;
8159;SDS011;27404;52.398;9.646;2024-01-30T03:56:07;18.57;;;11.70;;
8159;SDS011;27404;52.398;9.646;2024-01-30T03:58:33;18.87;;;11.43;;
8159;SDS011;27404;52.398;9.646;2024-01-30T04:00:58;18.30;;;11.77;;
8159;SDS011;27404;52.398;9.646;2024-01-30T04:03:24;19.97;;;11.53;;
8159;SDS011;27404;52.398;9.646;2024-01-30T04:05:51;16.53;;;10.57;;
8159;SDS011;27404;52.398;9.646;2024-01-30T04:08:17;20.13;;;11.47;;
8159;SDS011;27404;52.398;9.646;2024-01-30T04:10:42;19.93;;;11.60;;
8159;SDS011;27404;52.398;9.646;2024-01-30T04:13:08;20.00;;;12.27;;
8159;SDS011;27404;52.398;9.646;2024-01-30T04:15:34;18.13;;;11.60;;
8159;SDS011;27404;52.398;9.646;2024-01-30T04:18:00;21.33;;;11.43;;
8159;SDS011;27404;52.398;9.646;2024-01-30T04:20:25;18.47;;;11.17;;
8159;SDS011;27404;52.398;9.646;2024-01-30T04:22:51;19.20;;;11.97;;
8159;SDS011;27404;52.398;9.646;2024-01-30T04:25:16;16.83;;;11.07;;
8159;SDS011;27404;52.398;9.646;2024-01-30T04:27:42;21.47;;;12.30;;
8159;SDS011;27404;52.398;9.646;2024-01-30T04:30:07;20.30;;;12.40;;
8159;SDS011;27404;52.398;9.646;2024-01-30T04:32:34;20.33;;;12.10;;
8159;SDS011;27404;52.398;9.646;2024-01-30T04:35:00;20.67;;;12.50;;
8159;SDS011;27404;52.398;9.646;2024-01-30T04:37:25;22.53;;;12.60;;
8159;SDS011;27404;52.398;9.646;2024-01-30T04:39:51;20.30;;;12.30;;
8159;SDS011;27404;52.398;9.646;2024-01-30T04:42:17;18.63;;;11.03;;
8159;SDS011;27404;52.398;9.646;2024-01-30T04:44:42;27.43;;;12.77;;
8159;SDS011;27404;52.398;9.646;2024-01-30T04:47:08;19.83;;;11.30;;
8159;SDS011;27404;52.398;9.646;2024-01-30T04:49:36;18.90;;;11.97;;
8159;SDS011;27404;52.398;9.646;2024-01-30T04:52:01;20.53;;;12.47;;
8159;SDS011;27404;52.398;9.646;2024-01-30T04:54:27;16.80;;;11.03;;
8159;SDS011;27404;52.398;9.646;2024-01-30T04:56:52;17.27;;;11.90;;
8159;SDS011;27404;52.398;9.646;2024-01-30T04:59:18;18.20;;;11.87;;
8159;SDS011;27404;52.398;9.646;2024-01-30T05:01:43;17.43;;;11.07;;
8159;SDS011;27404;52.398;9.646;2024-01-30T05:04:09;21.57;;;12.00;;
8159;SDS011;27404;52.398;9.646;2024-01-30T05:06:36;21.00;;;11.13;;
8159;SDS011;27404;52.398;9.646;2024-01-30T05:09:01;20.17;;;12.00;;
8159;SDS011;27404;52.398;9.646;2024-01-30T05:11:27;17.13;;;11.10;;
8159;SDS011;27404;52.398;9.646;2024-01-30T05:13:52;19.03;;;11.57;;
8159;SDS011;27404;52.398;9.646;2024-01-30T05:16:18;18.40;;;10.60;;
8159;SDS011;27404;52.398;9.646;2024-01-30T05:18:43;20.47;;;11.03;;
8159;SDS011;27404;52.398;9.646;2024-01-30T05:21:10;15.60;;;11.43;;
8159;SDS011;27404;52.398;9.646;2024-01-30T05:23:35;18.90;;;11.00;;
8159;SDS011;27404;52.398;9.646;2024-01-30T05:26:01;20.77;;;11.03;;
8159;SDS011;27404;52.398;9.646;2024-01-30T05:28:27;21.67;;;11.37;;
8159;SDS011;27404;52.398;9.646;2024-01-30T05:30:54;19.10;;;11.30;;
8159;SDS011;27404;52.398;9.646;2024-01-30T05:33:19;20.40;;;11.37;;
8159;SDS011;27404;52.398;9.646;2024-01-30T05:35:45;18.03;;;11.60;;
8159;SDS011;27404;52.398;9.646;2024-01-30T05:38:11;21.07;;;12.00;;
8159;SDS011;27404;52.398;9.646;2024-01-30T05:40:36;15.27;;;10.63;;
8159;SDS011;27404;52.398;9.646;2024-01-30T05:43:02;16.13;;;10.97;;
8159;SDS011;27404;52.398;9.646;2024-01-30T05:45:27;19.27;;;11.10;;
8159;SDS011;27404;52.398;9.646;2024-01-30T05:47:53;20.47;;;11.63;;
8159;SDS011;27404;52.398;9.646;2024-01-30T05:50:19;18.00;;;11.00;;
8159;SDS011;27404;52.398;9.646;2024-01-30T05:52:44;21.03;;;11.77;;
8159;SDS011;27404;52.398;9.646;2024-01-30T05:55:11;17.43;;;11.63;;
8159;SDS011;27404;52.398;9.646;2024-01-30T05:57:37;18.97;;;10.83;;
8159;SDS011;27404;52.398;9.646;2024-01-30T06:00:04;19.57;;;11.20;;
8159;SDS011;27404;52.398;9.646;2024-01-30T06:02:32;17.20;;;11.50;;
8159;SDS011;27404;52.398;9.646;2024-01-30T06:04:58;19.17;;;10.77;;
8159;SDS011;27404;52.398;9.646;2024-01-30T06:07:23;18.20;;;10.40;;
8159;SDS011;27404;52.398;9.646;2024-01-30T06:09:49;19.93;;;11.87;;
8159;SDS011;27404;52.398;9.646;2024-01-30T06:12:14;21.00;;;12.93;;
8159;SDS011;27404;52.398;9.646;2024-01-30T06:14:40;18.33;;;11.00;;
8159;SDS011;27404;52.398;9.646;2024-01-30T06:17:07;20.73;;;11.00;;
8159;SDS011;27404;52.398;9.646;2024-01-30T06:19:33;18.53;;;11.63;;
8159;SDS011;27404;52.398;9.646;2024-01-30T06:21:59;19.37;;;11.87;;
8159;SDS011;27404;52.398;9.646;2024-01-30T06:24:24;21.17;;;11.83;;
8159;SDS011;27404;52.398;9.646;2024-01-30T06:26:50;18.67;;;11.80;;
8159;SDS011;27404;52.398;9.646;2024-01-30T06:29:15;17.27;;;11.47;;
8159;SDS011;27404;52.398;9.646;2024-01-30T06:31:41;19.87;;;11.33;;
8159;SDS011;27404;52.398;9.646;2024-01-30T06:34:08;19.63;;;11.67;;
8159;SDS011;27404;52.398;9.646;2024-01-30T06:36:34;20.93;;;12.37;;
8159;SDS011;27404;52.398;9.646;2024-01-30T06:39:00;18.93;;;11.57;;
8159;SDS011;27404;52.398;9.646;2024-01-30T06:41:26;21.07;;;11.90;;
8159;SDS011;27404;52.398;9.646;2024-01-30T06:43:52;18.67;;;11.73;;
8159;SDS011;27404;52.398;9.646;2024-01-30T06:46:17;19.43;;;10.83;;
8159;SDS011;27404;52.398;9.646;2024-01-30T06:48:43;15.93;;;11.27;;
8159;SDS011;27404;52.398;9.646;2024-01-30T06:51:10;20.60;;;11.73;;
8159;SDS011;27404;52.398;9.646;2024-01-30T06:53:36;20.93;;;11.27;;
8159;SDS011;27404;52.398;9.646;2024-01-30T06:56:02;15.00;;;10.87;;
8159;SDS011;27404;52.398;9.646;2024-01-30T06:58:28;16.40;;;10.53;;
8159;SDS011;27404;52.398;9.646;2024-01-30T07:00:54;19.03;;;10.37;;
8159;SDS011;27404;52.398;9.646;2024-01-30T07:03:19;18.30;;;10.93;;
8159;SDS011;27404;52.398;9.646;2024-01-30T07:05:45;16.53;;;11.33;;
8159;SDS011;27404;52.398;9.646;2024-01-30T07:08:10;17.10;;;11.20;;
8159;SDS011;27404;52.398;9.646;2024-01-30T07:10:36;15.97;;;10.60;;
8159;SDS011;27404;52.398;9.646;2024-01-30T07:13:02;16.90;;;10.80;;
8159;SDS011;27404;52.398;9.646;2024-01-30T07:15:29;15.30;;;10.53;;
8159;SDS011;27404;52.398;9.646;2024-01-30T07:17:54;17.83;;;10.67;;
8159;SDS011;27404;52.398;9.646;2024-01-30T07:20:20;16.90;;;11.37;;
8159;SDS011;27404;52.398;9.646;2024-01-30T07:22:46;16.83;;;11.43;;
8159;SDS011;27404;52.398;9.646;2024-01-30T07:25:12;17.40;;;11.00;;
8159;SDS011;27404;52.398;9.646;2024-01-30T07:27:38;16.67;;;10.60;;
8159;SDS011;27404;52.398;9.646;2024-01-30T07:30:03;16.03;;;9.80;;
8159;SDS011;27404;52.398;9.646;2024-01-30T07:32:29;16.30;;;10.20;;
8159;SDS011;27404;52.398;9.646;2024-01-30T07:34:55;19.17;;;10.27;;
8159;SDS011;27404;52.398;9.646;2024-01-30T07:37:20;19.07;;;9.83;;
8159;SDS011;27404;52.398;9.646;2024-01-30T07:39:46;17.47;;;9.97;;
8159;SDS011;27404;52.398;9.646;2024-01-30T07:42:12;13.93;;;9.83;;
8159;SDS011;27404;52.398;9.646;2024-01-30T07:44:38;13.20;;;9.07;;
8159;SDS011;27404;52.398;9.646;2024-01-30T07:47:03;16.67;;;9.80;;
8159;SDS011;27404;52.398;9.646;2024-01-30T07:49:29;15.40;;;10.00;;
8159;SDS011;27404;52.398;9.646;2024-01-30T07:51:55;17.57;;;9.97;;
8159;SDS011;27404;52.398;9.646;2024-01-30T07:54:20;17.93;;;10.50;;
8159;SDS011;27404;52.398;9.646;2024-01-30T07:56:46;15.97;;;10.40;;
8159;SDS011;27404;52.398;9.646;2024-01-30T07:59:12;20.93;;;11.67;;
8159;SDS011;27404;52.398;9.646;2024-01-30T08:01:37;15.80;;;9.70;;
8159;SDS011;27404;52.398;9.646;2024-01-30T08:04:03;14.57;;;10.00;;
8159;SDS011;27404;52.398;9.646;2024-01-30T08:06:29;18.40;;;10.37;;
8159;SDS011;27404;52.398;9.646;2024-01-30T08:08:54;16.20;;;10.10;;
8159;SDS011;27404;52.398;9.646;2024-01-30T08:11:20;16.60;;;9.30;;
8159;SDS011;27404;52.398;9.646;2024-01-30T08:13:51;15.43;;;8.87;;
8159;SDS011;27404;52.398;9.646;2024-01-30T08:16:17;14.83;;;9.33;;
8159;SDS011;27404;52.398;9.646;2024-01-30T08:18:43;13.53;;;9.30;;
8159;SDS011;27404;52.398;9.646;2024-01-30T08:21:08;15.87;;;9.33;;
8159;SDS011;27404;52.398;9.646;2024-01-30T08:23:34;14.53;;;9.33;;
8159;SDS011;27404;52.398;9.646;2024-01-30T08:26:00;13.70;;;8.73;;
8159;SDS011;27404;52.398;9.646;2024-01-30T08:28:26;12.27;;;8.90;;
8159;SDS011;27404;52.398;9.646;2024-01-30T08:30:51;13.40;;;8.80;;
8159;SDS011;27404;52.398;9.646;2024-01-30T08:33:17;14.13;;;9.13;;
8159;SDS011;27404;52.398;9.646;2024-01-30T08:35:43;15.30;;;9.73;;
8159;SDS011;27404;52.398;9.646;2024-01-30T08:38:08;14.53;;;9.03;;
8159;SDS011;27404;52.398;9.646;2024-01-30T08:40:34;14.07;;;8.93;;
8159;SDS011;27404;52.398;9.646;2024-01-30T08:43:00;18.03;;;10.37;;
8159;SDS011;27404;52.398;9.646;2024-01-30T08:45:26;14.20;;;8.93;;
8159;SDS011;27404;52.398;9.646;2024-01-30T08:47:51;13.47;;;8.90;;
8159;SDS011;27404;52.398;9.646;2024-01-30T08:50:17;13.47;;;8.40;;
8159;SDS011;27404;52.398;9.646;2024-01-30T08:52:43;13.70;;;9.03;;
8159;SDS011;27404;52.398;9.646;2024-01-30T08:55:08;13.33;;;8.80;;
8159;SDS011;27404;52.398;9.646;2024-01-30T08:57:34;12.60;;;8.17;;
8159;SDS011;27404;52.398;9.646;2024-01-30T09:00:00;15.33;;;8.60;;
8159;SDS011;27404;52.398;9.646;2024-01-30T09:02:27;15.03;;;8.77;;
8159;SDS011;27404;52.398;9.646;2024-01-30T09:04:52;13.03;;;8.53;;
8159;SDS011;27404;52.398;9.646;2024-01-30T09:07:18;15.27;;;8.30;;
8159;SDS011;27404;52.398;9.646;2024-01-30T09:09:44;12.73;;;8.30;;
8159;SDS011;27404;52.398;9.646;2024-01-30T09:12:10;12.30;;;8.43;;
8159;SDS011;27404;52.398;9.646;2024-01-30T09:14:37;11.63;;;7.93;;
8159;SDS011;27404;52.398;9.646;2024-01-30T09:17:03;14.67;;;8.13;;
8159;SDS011;27404;52.398;9.646;2024-01-30T09:19:29;16.17;;;8.40;;
8159;SDS011;27404;52.398;9.646;2024-01-30T09:21:55;13.37;;;8.17;;
8159;SDS011;27404;52.398;9.646;2024-01-30T09:24:21;12.10;;;7.67;;
8159;SDS011;27404;52.398;9.646;2024-01-30T09:26:46;11.03;;;7.70;;
8159;SDS011;27404;52.398;9.646;2024-01-30T09:29:12;15.80;;;7.80;;
8159;SDS011;27404;52.398;9.646;2024-01-30T09:31:37;14.60;;;7.90;;
8159;SDS011;27404;52.398;9.646;2024-01-30T09:34:03;11.47;;;7.93;;
8159;SDS011;27404;52.398;9.646;2024-01-30T09:36:28;11.83;;;7.80;;
8159;SDS011;27404;52.398;9.646;2024-01-30T09:38:54;11.47;;;7.30;;
8159;SDS011;27404;52.398;9.646;2024-01-30T09:41:20;11.23;;;7.53;;
8159;SDS011;27404;52.398;9.646;2024-01-30T09:43:49;10.17;;;7.30;;
8159;SDS011;27404;52.398;9.646;2024-01-30T09:46:16;11.43;;;6.90;;
8159;SDS011;27404;52.398;9.646;2024-01-30T09:48:43;11.63;;;7.03;;
8159;SDS011;27404;52.398;9.646;2024-01-30T09:51:16;10.30;;;7.20;;
8159;SDS011;27404;52.398;9.646;2024-01-30T09:53:43;10.73;;;7.07;;
8159;SDS011;27404;52.398;9.646;2024-01-30T09:56:09;12.33;;;7.23;;
8159;SDS011;27404;52.398;9.646;2024-01-30T09:58:36;9.33;;;7.33;;
8159;SDS011;27404;52.398;9.646;2024-01-30T10:01:02;10.67;;;7.40;;
8159;SDS011;27404;52.398;9.646;2024-01-30T10:03:27;10.83;;;6.83;;
8159;SDS011;27404;52.398;9.646;2024-01-30T10:05:53;11.27;;;7.13;;
8159;SDS011;27404;52.398;9.646;2024-01-30T10:08:21;13.43;;;7.50;;
8159;SDS011;27404;52.398;9.646;2024-01-30T10:10:47;11.60;;;7.40;;
8159;SDS011;27404;52.398;9.646;2024-01-30T10:13:12;9.83;;;7.33;;
8159;SDS011;27404;52.398;9.646;2024-01-30T10:15:38;12.27;;;7.40;;
8159;SDS011;27404;52.398;9.646;2024-01-30T10:18:04;12.77;;;7.23;;
8159;SDS011;27404;52.398;9.646;2024-01-30T10:20:33;12.57;;;7.20;;
8159;SDS011;27404;52.398;9.646;2024-01-30T10:22:59;13.60;;;7.80;;
8159;SDS011;27404;52.398;9.646;2024-01-30T10:25:25;17.17;;;7.80;;
8159;SDS011;27404;52.398;9.646;2024-01-30T10:27:54;9.77;;;6.83;;
8159;SDS011;27404;52.398;9.646;2024-01-30T10:30:23;11.83;;;7.83;;
8159;SDS011;27404;52.398;9.646;2024-01-30T10:32:50;10.17;;;7.13;;
8159;SDS011;27404;52.398;9.646;2024-01-30T10:35:16;12.17;;;7.30;;
8159;SDS011;27404;52.398;9.646;2024-01-30T10:37:46;9.87;;;6.90;;
8159;SDS011;27404;52.398;9.646;2024-01-30T10:40:13;10.80;;;7.30;;
8159;SDS011;27404;52.398;9.646;2024-01-30T10:42:42;11.43;;;7.40;;
8159;SDS011;27404;52.398;9.646;2024-01-30T10:45:10;12.10;;;7.97;;
8159;SDS011;27404;52.398;9.646;2024-01-30T10:47:41;10.80;;;6.93;;
8159;SDS011;27404;52.398;9.646;2024-01-30T10:53:19;11.73;;;6.53;;
8159;SDS011;27404;52.398;9.646;2024-01-30T10:55:45;11.10;;;7.10;;
8159;SDS011;27404;52.398;9.646;2024-01-30T10:58:12;10.50;;;6.47;;
8159;SDS011;27404;52.398;9.646;2024-01-30T11:00:40;9.97;;;6.73;;
8159;SDS011;27404;52.398;9.646;2024-01-30T11:03:06;10.60;;;6.80;;
8159;SDS011;27404;52.398;9.646;2024-01-30T11:05:33;9.87;;;7.33;;
8159;SDS011;27404;52.398;9.646;2024-01-30T11:07:58;13.30;;;7.20;;
8159;SDS011;27404;52.398;9.646;2024-01-30T11:10:24;10.00;;;6.20;;
8159;SDS011;27404;52.398;9.646;2024-01-30T11:12:50;11.00;;;6.67;;
8159;SDS011;27404;52.398;9.646;2024-01-30T11:15:16;11.07;;;6.97;;
8159;SDS011;27404;52.398;9.646;2024-01-30T11:17:43;12.10;;;6.70;;
8159;SDS011;27404;52.398;9.646;2024-01-30T11:20:16;10.13;;;7.30;;
8159;SDS011;27404;52.398;9.646;2024-01-30T11:22:47;9.23;;;6.70;;
8159;SDS011;27404;52.398;9.646;2024-01-30T11:25:14;11.27;;;6.50;;
8159;SDS011;27404;52.398;9.646;2024-01-30T11:27:41;11.80;;;6.83;;
8159;SDS011;27404;52.398;9.646;2024-01-30T11:30:08;10.53;;;7.03;;
8159;SDS011;27404;52.398;9.646;2024-01-30T11:32:33;10.47;;;6.93;;
8159;SDS011;27404;52.398;9.646;2024-01-30T11:34:59;12.17;;;7.07;;
8159;SDS011;27404;52.398;9.646;2024-01-30T11:37:25;11.20;;;6.93;;
8159;SDS011;27404;52.398;9.646;2024-01-30T11:39:53;12.87;;;6.97;;
8159;SDS011;27404;52.398;9.646;2024-01-30T11:42:19;9.83;;;6.43;;
8159;SDS011;27404;52.398;9.646;2024-01-30T11:44:49;9.63;;;6.40;;
8159;SDS011;27404;52.398;9.646;2024-01-30T11:47:14;8.93;;;6.30;;
8159;SDS011;27404;52.398;9.646;2024-01-30T11:49:41;12.40;;;6.63;;
8159;SDS011;27404;52.398;9.646;2024-01-30T11:52:07;7.37;;;6.13;;
8159;SDS011;27404;52.398;9.646;2024-01-30T11:54:33;9.00;;;6.10;;
8159;SDS011;27404;52.398;9.646;2024-01-30T11:56:58;10.63;;;7.03;;
8159;SDS011;27404;52.398;9.646;2024-01-30T11:59:24;13.23;;;6.83;;
8159;SDS011;27404;52.398;9.646;2024-01-30T12:01:51;8.97;;;5.60;;
8159;SDS011;27404;52.398;9.646;2024-01-30T12:04:17;13.83;;;6.40;;
8159;SDS011;27404;52.398;9.646;2024-01-30T12:06:42;13.40;;;7.40;;
8159;SDS011;27404;52.398;9.646;2024-01-30T12:09:08;8.27;;;5.70;;
8159;SDS011;27404;52.398;9.646;2024-01-30T12:11:47;11.13;;;6.47;;
8159;SDS011;27404;52.398;9.646;2024-01-30T12:14:13;8.93;;;5.63;;
8159;SDS011;27404;52.398;9.646;2024-01-30T12:16:40;11.37;;;7.00;;
8159;SDS011;27404;52.398;9.646;2024-01-30T12:19:06;9.63;;;6.23;;
8159;SDS011;27404;52.398;9.646;2024-01-30T12:21:33;8.87;;;6.07;;
8159;SDS011;27404;52.398;9.646;2024-01-30T12:23:59;9.27;;;5.73;;
8159;SDS011;27404;52.398;9.646;2024-01-30T12:26:25;9.43;;;5.83;;
8159;SDS011;27404;52.398;9.646;2024-01-30T12:28:54;9.10;;;6.20;;
8159;SDS011;27404;52.398;9.646;2024-01-30T12:34:31;10.13;;;6.00;;
8159;SDS011;27404;52.398;9.646;2024-01-30T12:36:57;7.03;;;5.33;;
8159;SDS011;27404;52.398;9.646;2024-01-30T12:39:22;9.80;;;5.57;;
8159;SDS011;27404;52.398;9.646;2024-01-30T12:41:48;9.20;;;5.83;;
8159;SDS011;27404;52.398;9.646;2024-01-30T12:44:14;8.63;;;6.33;;
8159;SDS011;27404;52.398;9.646;2024-01-30T12:46:39;7.70;;;6.03;;
8159;SDS011;27404;52.398;9.646;2024-01-30T12:49:05;8.77;;;5.20;;
8159;SDS011;27404;52.398;9.646;2024-01-30T12:51:30;9.03;;;5.37;;
8159;SDS011;27404;52.398;9.646;2024-01-30T12:54:03;7.87;;;5.40;;
8159;SDS011;27404;52.398;9.646;2024-01-30T12:56:30;10.37;;;5.57;;
8159;SDS011;27404;52.398;9.646;2024-01-30T12:58:55;9.40;;;5.47;;
8159;SDS011;27404;52.398;9.646;2024-01-30T13:01:21;8.53;;;6.07;;
8159;SDS011;27404;52.398;9.646;2024-01-30T13:03:46;8.60;;;6.03;;
8159;SDS011;27404;52.398;9.646;2024-01-30T13:06:12;7.03;;;5.30;;
8159;SDS011;27404;52.398;9.646;2024-01-30T13:08:37;8.73;;;5.57;;
8159;SDS011;27404;52.398;9.646;2024-01-30T13:11:03;7.97;;;5.47;;
8159;SDS011;27404;52.398;9.646;2024-01-30T13:13:28;8.03;;;5.40;;
8159;SDS011;27404;52.398;9.646;2024-01-30T13:15:54;10.83;;;5.67;;
8159;SDS011;27404;52.398;9.646;2024-01-30T13:18:20;8.33;;;5.10;;
8159;SDS011;27404;52.398;9.646;2024-01-30T13:20:45;7.57;;;5.10;;
8159;SDS011;27404;52.398;9.646;2024-01-30T13:23:11;7.17;;;4.97;;
8159;SDS011;27404;52.398;9.646;2024-01-30T13:25:36;9.20;;;4.73;;
8159;SDS011;27404;52.398;9.646;2024-01-30T13:28:02;7.83;;;5.10;;
8159;SDS011;27404;52.398;9.646;2024-01-30T13:30:27;6.93;;;4.43;;
8159;SDS011;27404;52.398;9.646;2024-01-30T13:32:53;8.33;;;5.10;;
8159;SDS011;27404;52.398;9.646;2024-01-30T13:35:19;6.80;;;4.73;;
8159;SDS011;27404;52.398;9.646;2024-01-30T13:37:44;8.77;;;4.97;;
8159;SDS011;27404;52.398;9.646;2024-01-30T13:40:12;7.70;;;4.77;;
8159;SDS011;27404;52.398;9.646;2024-01-30T13:42:39;7.40;;;5.10;;
8159;SDS011;27404;52.398;9.646;2024-01-30T13:45:05;10.27;;;5.70;;
8159;SDS011;27404;52.398;9.646;2024-01-30T13:47:30;9.17;;;5.90;;
8159;SDS011;27404;52.398;9.646;2024-01-30T13:49:56;9.50;;;5.70;;
8159;SDS011;27404;52.398;9.646;2024-01-30T13:52:22;8.10;;;5.17;;
8159;SDS011;27404;52.398;9.646;2024-01-30T13:54:47;10.27;;;5.70;;
8159;SDS011;27404;52.398;9.646;2024-01-30T13:57:13;9.27;;;5.07;;
8159;SDS011;27404;52.398;9.646;2024-01-30T13:59:39;9.53;;;5.07;;
8159;SDS011;27404;52.398;9.646;2024-01-30T14:02:04;8.27;;;5.60;;
8159;SDS011;27404;52.398;9.646;2024-01-30T14:04:30;7.70;;;5.43;;
8159;SDS011;27404;52.398;9.646;2024-01-30T14:06:56;8.53;;;4.87;;
8159;SDS011;27404;52.398;9.646;2024-01-30T14:09:21;11.90;;;6.03;;
8159;SDS011;27404;52.398;9.646;2024-01-30T14:11:47;11.07;;;5.30;;
8159;SDS011;27404;52.398;9.646;2024-01-30T14:14:12;9.83;;;5.50;;
8159;SDS011;27404;52.398;9.646;2024-01-30T14:16:38;9.03;;;5.30;;
8159;SDS011;27404;52.398;9.646;2024-01-30T14:19:03;10.47;;;5.90;;
8159;SDS011;27404;52.398;9.646;2024-01-30T14:21:29;10.77;;;5.77;;
8159;SDS011;27404;52.398;9.646;2024-01-30T14:23:54;10.57;;;5.93;;
8159;SDS011;27404;52.398;9.646;2024-01-30T14:26:20;13.17;;;6.40;;
8159;SDS011;27404;52.398;9.646;2024-01-30T14:28:46;11.67;;;6.00;;
8159;SDS011;27404;52.398;9.646;2024-01-30T14:31:11;8.70;;;5.50;;
8159;SDS011;27404;52.398;9.646;2024-01-30T14:33:37;11.97;;;5.77;;
8159;SDS011;27404;52.398;9.646;2024-01-30T14:36:03;9.17;;;5.43;;
8159;SDS011;27404;52.398;9.646;2024-01-30T14:38:28;9.47;;;5.67;;
8159;SDS011;27404;52.398;9.646;2024-01-30T14:40:54;8.00;;;6.00;;